sensor_id;sensor_type;location;lat;lon;timestamp;P1;durP1;ratioP1;P2;durP2;ratioP2
42754;SDS011;28407;51.830;5.684;2022-08-21T00:01:18;3.55;;;1.40;;
42754;SDS011;28407;51.830;5.684;2022-08-21T00:03:20;3.28;;;1.38;;
42754;SDS011;28407;51.830;5.684;2022-08-21T00:05:21;1.83;;;0.93;;
42754;SDS011;28407;51.830;5.684;2022-08-21T00:09:24;1.95;;;1.10;;
42754;SDS011;28407;51.830;5.684;2022-08-21T00:11:24;2.85;;;0.95;;
42754;SDS011;28407;51.830;5.684;2022-08-21T00:13:27;2.60;;;1.30;;
42754;SDS011;28407;51.830;5.684;2022-08-21T00:15:28;2.95;;;1.17;;
42754;SDS011;28407;51.830;5.684;2022-08-21T00:17:30;2.55;;;1.10;;
42754;SDS011;28407;51.830;5.684;2022-08-21T00:19:31;2.92;;;1.30;;
42754;SDS011;28407;51.830;5.684;2022-08-21T00:21:33;2.30;;;1.50;;
42754;SDS011;28407;51.830;5.684;2022-08-21T00:25:35;2.42;;;1.10;;
42754;SDS011;28407;51.830;5.684;2022-08-21T00:27:37;2.58;;;1.15;;
42754;SDS011;28407;51.830;5.684;2022-08-21T00:29:37;3.77;;;1.77;;
42754;SDS011;28407;51.830;5.684;2022-08-21T00:31:39;2.95;;;1.30;;
42754;SDS011;28407;51.830;5.684;2022-08-21T00:33:41;3.90;;;1.40;;
42754;SDS011;28407;51.830;5.684;2022-08-21T00:35:42;2.95;;;1.17;;
42754;SDS011;28407;51.830;5.684;2022-08-21T00:37:43;2.53;;;1.48;;
42754;SDS011;28407;51.830;5.684;2022-08-21T00:39:44;3.45;;;1.48;;
42754;SDS011;28407;51.830;5.684;2022-08-21T00:41:45;1.88;;;1.08;;
42754;SDS011;28407;51.830;5.684;2022-08-21T00:43:46;2.92;;;1.10;;
42754;SDS011;28407;51.830;5.684;2022-08-21T00:45:46;3.50;;;1.30;;
42754;SDS011;28407;51.830;5.684;2022-08-21T00:47:48;2.78;;;1.30;;
42754;SDS011;28407;51.830;5.684;2022-08-21T00:49:49;2.70;;;1.65;;
42754;SDS011;28407;51.830;5.684;2022-08-21T00:51:55;2.30;;;1.17;;
42754;SDS011;28407;51.830;5.684;2022-08-21T00:53:59;3.60;;;1.42;;
42754;SDS011;28407;51.830;5.684;2022-08-21T00:56:02;2.78;;;1.45;;
42754;SDS011;28407;51.830;5.684;2022-08-21T00:58:05;3.25;;;1.38;;
42754;SDS011;28407;51.830;5.684;2022-08-21T01:00:09;3.65;;;1.77;;
42754;SDS011;28407;51.830;5.684;2022-08-21T01:02:13;3.70;;;1.50;;
42754;SDS011;28407;51.830;5.684;2022-08-21T01:04:13;2.47;;;1.30;;
42754;SDS011;28407;51.830;5.684;2022-08-21T01:06:16;3.95;;;1.63;;
42754;SDS011;28407;51.830;5.684;2022-08-21T01:08:17;3.05;;;1.55;;
42754;SDS011;28407;51.830;5.684;2022-08-21T01:10:19;2.50;;;1.35;;
42754;SDS011;28407;51.830;5.684;2022-08-21T01:12:20;3.00;;;2.00;;
42754;SDS011;28407;51.830;5.684;2022-08-21T01:14:21;2.67;;;1.47;;
42754;SDS011;28407;51.830;5.684;2022-08-21T01:16:22;3.20;;;1.30;;
42754;SDS011;28407;51.830;5.684;2022-08-21T01:18:23;2.47;;;1.23;;
42754;SDS011;28407;51.830;5.684;2022-08-21T01:20:25;3.10;;;1.50;;
42754;SDS011;28407;51.830;5.684;2022-08-21T01:22:25;2.78;;;1.40;;
42754;SDS011;28407;51.830;5.684;2022-08-21T01:24:26;2.97;;;1.60;;
42754;SDS011;28407;51.830;5.684;2022-08-21T01:26:28;5.13;;;1.80;;
42754;SDS011;28407;51.830;5.684;2022-08-21T01:28:31;3.00;;;1.80;;
42754;SDS011;28407;51.830;5.684;2022-08-21T01:30:37;2.65;;;1.40;;
42754;SDS011;28407;51.830;5.684;2022-08-21T01:32:39;3.10;;;1.27;;
42754;SDS011;28407;51.830;5.684;2022-08-21T01:34:41;3.35;;;1.67;;
42754;SDS011;28407;51.830;5.684;2022-08-21T01:36:44;2.80;;;1.42;;
42754;SDS011;28407;51.830;5.684;2022-08-21T01:40:47;3.13;;;1.80;;
42754;SDS011;28407;51.830;5.684;2022-08-21T01:42:47;2.15;;;1.38;;
42754;SDS011;28407;51.830;5.684;2022-08-21T01:44:48;3.55;;;1.50;;
42754;SDS011;28407;51.830;5.684;2022-08-21T01:46:49;2.80;;;1.67;;
42754;SDS011;28407;51.830;5.684;2022-08-21T01:48:51;2.35;;;1.50;;
42754;SDS011;28407;51.830;5.684;2022-08-21T01:50:51;5.40;;;1.88;;
42754;SDS011;28407;51.830;5.684;2022-08-21T01:52:52;2.33;;;1.50;;
42754;SDS011;28407;51.830;5.684;2022-08-21T01:54:52;2.30;;;1.55;;
42754;SDS011;28407;51.830;5.684;2022-08-21T01:56:53;4.05;;;1.90;;
42754;SDS011;28407;51.830;5.684;2022-08-21T01:58:54;3.22;;;1.88;;
42754;SDS011;28407;51.830;5.684;2022-08-21T02:00:55;6.20;;;1.95;;
42754;SDS011;28407;51.830;5.684;2022-08-21T02:02:56;4.47;;;2.30;;
42754;SDS011;28407;51.830;5.684;2022-08-21T02:04:56;2.55;;;1.63;;
42754;SDS011;28407;51.830;5.684;2022-08-21T02:06:57;3.83;;;1.83;;
42754;SDS011;28407;51.830;5.684;2022-08-21T02:08:59;2.85;;;1.83;;
42754;SDS011;28407;51.830;5.684;2022-08-21T02:10:59;3.25;;;2.30;;
42754;SDS011;28407;51.830;5.684;2022-08-21T02:13:00;2.92;;;1.70;;
42754;SDS011;28407;51.830;5.684;2022-08-21T02:15:01;4.03;;;1.67;;
42754;SDS011;28407;51.830;5.684;2022-08-21T02:17:03;3.55;;;2.03;;
42754;SDS011;28407;51.830;5.684;2022-08-21T02:19:04;3.42;;;1.85;;
42754;SDS011;28407;51.830;5.684;2022-08-21T02:21:05;2.95;;;1.55;;
42754;SDS011;28407;51.830;5.684;2022-08-21T02:23:06;2.97;;;1.80;;
42754;SDS011;28407;51.830;5.684;2022-08-21T02:25:08;2.72;;;1.70;;
42754;SDS011;28407;51.830;5.684;2022-08-21T02:29:11;2.80;;;1.70;;
42754;SDS011;28407;51.830;5.684;2022-08-21T02:31:12;3.58;;;1.63;;
42754;SDS011;28407;51.830;5.684;2022-08-21T02:33:13;2.88;;;2.08;;
42754;SDS011;28407;51.830;5.684;2022-08-21T02:35:14;2.50;;;1.63;;
42754;SDS011;28407;51.830;5.684;2022-08-21T02:37:15;3.75;;;2.15;;
42754;SDS011;28407;51.830;5.684;2022-08-21T02:39:16;3.58;;;2.15;;
42754;SDS011;28407;51.830;5.684;2022-08-21T02:41:18;2.90;;;2.20;;
42754;SDS011;28407;51.830;5.684;2022-08-21T02:43:21;4.32;;;2.70;;
42754;SDS011;28407;51.830;5.684;2022-08-21T02:45:26;3.42;;;2.22;;
42754;SDS011;28407;51.830;5.684;2022-08-21T02:47:28;3.80;;;1.98;;
42754;SDS011;28407;51.830;5.684;2022-08-21T02:49:29;3.92;;;1.90;;
42754;SDS011;28407;51.830;5.684;2022-08-21T02:51:29;5.18;;;2.47;;
42754;SDS011;28407;51.830;5.684;2022-08-21T02:53:31;4.43;;;2.22;;
42754;SDS011;28407;51.830;5.684;2022-08-21T02:55:33;3.47;;;2.15;;
42754;SDS011;28407;51.830;5.684;2022-08-21T02:57:35;3.03;;;1.85;;
42754;SDS011;28407;51.830;5.684;2022-08-21T02:59:35;4.57;;;2.55;;
42754;SDS011;28407;51.830;5.684;2022-08-21T03:01:36;3.85;;;2.20;;
42754;SDS011;28407;51.830;5.684;2022-08-21T03:03:38;5.80;;;2.17;;
42754;SDS011;28407;51.830;5.684;2022-08-21T03:05:41;3.13;;;1.75;;
42754;SDS011;28407;51.830;5.684;2022-08-21T03:07:43;4.15;;;2.22;;
42754;SDS011;28407;51.830;5.684;2022-08-21T03:09:44;3.67;;;2.10;;
42754;SDS011;28407;51.830;5.684;2022-08-21T03:11:45;2.67;;;1.77;;
42754;SDS011;28407;51.830;5.684;2022-08-21T03:13:46;3.20;;;1.80;;
42754;SDS011;28407;51.830;5.684;2022-08-21T03:15:47;3.42;;;1.90;;
42754;SDS011;28407;51.830;5.684;2022-08-21T03:17:48;4.03;;;2.10;;
42754;SDS011;28407;51.830;5.684;2022-08-21T03:19:49;3.58;;;1.95;;
42754;SDS011;28407;51.830;5.684;2022-08-21T03:21:50;3.50;;;1.88;;
42754;SDS011;28407;51.830;5.684;2022-08-21T03:23:50;2.58;;;1.70;;
42754;SDS011;28407;51.830;5.684;2022-08-21T03:25:51;3.00;;;2.38;;
42754;SDS011;28407;51.830;5.684;2022-08-21T03:27:52;3.72;;;2.50;;
42754;SDS011;28407;51.830;5.684;2022-08-21T03:29:53;4.22;;;1.98;;
42754;SDS011;28407;51.830;5.684;2022-08-21T03:31:54;2.70;;;1.85;;
42754;SDS011;28407;51.830;5.684;2022-08-21T03:33:55;4.05;;;2.03;;
42754;SDS011;28407;51.830;5.684;2022-08-21T03:35:58;3.63;;;1.97;;
42754;SDS011;28407;51.830;5.684;2022-08-21T03:38:01;4.70;;;2.50;;
42754;SDS011;28407;51.830;5.684;2022-08-21T03:40:03;3.63;;;2.10;;
42754;SDS011;28407;51.830;5.684;2022-08-21T03:42:06;3.38;;;2.00;;
42754;SDS011;28407;51.830;5.684;2022-08-21T03:44:06;3.22;;;2.00;;
42754;SDS011;28407;51.830;5.684;2022-08-21T03:46:07;3.25;;;1.90;;
42754;SDS011;28407;51.830;5.684;2022-08-21T03:48:08;3.33;;;2.13;;
42754;SDS011;28407;51.830;5.684;2022-08-21T03:50:09;3.73;;;2.07;;
42754;SDS011;28407;51.830;5.684;2022-08-21T03:52:09;3.15;;;2.20;;
42754;SDS011;28407;51.830;5.684;2022-08-21T03:54:10;5.03;;;2.25;;
42754;SDS011;28407;51.830;5.684;2022-08-21T03:56:11;4.60;;;2.22;;
42754;SDS011;28407;51.830;5.684;2022-08-21T03:58:12;3.97;;;2.05;;
42754;SDS011;28407;51.830;5.684;2022-08-21T04:00:14;3.88;;;2.53;;
42754;SDS011;28407;51.830;5.684;2022-08-21T04:02:16;2.65;;;1.98;;
42754;SDS011;28407;51.830;5.684;2022-08-21T04:04:20;3.70;;;2.30;;
42754;SDS011;28407;51.830;5.684;2022-08-21T04:06:21;3.55;;;2.10;;
42754;SDS011;28407;51.830;5.684;2022-08-21T04:08:21;4.25;;;2.67;;
42754;SDS011;28407;51.830;5.684;2022-08-21T04:10:22;3.28;;;1.95;;
42754;SDS011;28407;51.830;5.684;2022-08-21T04:14:28;4.20;;;1.60;;
42754;SDS011;28407;51.830;5.684;2022-08-21T04:16:28;2.92;;;2.38;;
42754;SDS011;28407;51.830;5.684;2022-08-21T04:18:29;3.40;;;2.20;;
42754;SDS011;28407;51.830;5.684;2022-08-21T04:20:29;4.35;;;2.30;;
42754;SDS011;28407;51.830;5.684;2022-08-21T04:22:30;4.28;;;2.40;;
42754;SDS011;28407;51.830;5.684;2022-08-21T04:24:31;3.50;;;1.90;;
42754;SDS011;28407;51.830;5.684;2022-08-21T04:26:32;3.25;;;1.90;;
42754;SDS011;28407;51.830;5.684;2022-08-21T04:28:34;2.53;;;1.48;;
42754;SDS011;28407;51.830;5.684;2022-08-21T04:30:34;2.90;;;1.85;;
42754;SDS011;28407;51.830;5.684;2022-08-21T04:32:36;1.85;;;1.58;;
42754;SDS011;28407;51.830;5.684;2022-08-21T04:34:37;2.08;;;1.30;;
42754;SDS011;28407;51.830;5.684;2022-08-21T04:36:38;3.15;;;1.90;;
42754;SDS011;28407;51.830;5.684;2022-08-21T04:38:38;3.53;;;1.65;;
42754;SDS011;28407;51.830;5.684;2022-08-21T04:40:39;2.95;;;1.90;;
42754;SDS011;28407;51.830;5.684;2022-08-21T04:42:47;4.07;;;1.88;;
42754;SDS011;28407;51.830;5.684;2022-08-21T04:44:50;3.55;;;1.83;;
42754;SDS011;28407;51.830;5.684;2022-08-21T04:46:51;4.17;;;1.97;;
42754;SDS011;28407;51.830;5.684;2022-08-21T04:48:52;2.45;;;1.55;;
42754;SDS011;28407;51.830;5.684;2022-08-21T04:51:03;4.38;;;2.00;;
42754;SDS011;28407;51.830;5.684;2022-08-21T04:53:18;2.40;;;1.63;;
42754;SDS011;28407;51.830;5.684;2022-08-21T04:55:28;2.60;;;2.00;;
42754;SDS011;28407;51.830;5.684;2022-08-21T04:57:29;4.03;;;1.60;;
42754;SDS011;28407;51.830;5.684;2022-08-21T04:59:31;3.25;;;1.88;;
42754;SDS011;28407;51.830;5.684;2022-08-21T05:01:39;3.53;;;2.03;;
42754;SDS011;28407;51.830;5.684;2022-08-21T05:03:40;3.78;;;1.65;;
42754;SDS011;28407;51.830;5.684;2022-08-21T05:05:43;3.53;;;2.03;;
42754;SDS011;28407;51.830;5.684;2022-08-21T05:07:44;3.30;;;2.20;;
42754;SDS011;28407;51.830;5.684;2022-08-21T05:09:45;2.60;;;1.98;;
42754;SDS011;28407;51.830;5.684;2022-08-21T05:11:46;4.75;;;2.00;;
42754;SDS011;28407;51.830;5.684;2022-08-21T05:13:48;4.82;;;2.15;;
42754;SDS011;28407;51.830;5.684;2022-08-21T05:15:49;4.15;;;2.30;;
42754;SDS011;28407;51.830;5.684;2022-08-21T05:17:50;4.20;;;2.00;;
42754;SDS011;28407;51.830;5.684;2022-08-21T05:19:50;4.55;;;2.50;;
42754;SDS011;28407;51.830;5.684;2022-08-21T05:21:51;4.07;;;2.63;;
42754;SDS011;28407;51.830;5.684;2022-08-21T05:23:51;4.00;;;2.55;;
42754;SDS011;28407;51.830;5.684;2022-08-21T05:25:52;3.80;;;2.17;;
42754;SDS011;28407;51.830;5.684;2022-08-21T05:27:53;3.58;;;2.65;;
42754;SDS011;28407;51.830;5.684;2022-08-21T05:29:54;4.60;;;2.50;;
42754;SDS011;28407;51.830;5.684;2022-08-21T05:31:54;3.55;;;2.60;;
42754;SDS011;28407;51.830;5.684;2022-08-21T05:33:55;5.05;;;2.85;;
42754;SDS011;28407;51.830;5.684;2022-08-21T05:35:57;4.45;;;2.63;;
42754;SDS011;28407;51.830;5.684;2022-08-21T05:37:58;3.38;;;2.45;;
42754;SDS011;28407;51.830;5.684;2022-08-21T05:42:00;6.20;;;3.83;;
42754;SDS011;28407;51.830;5.684;2022-08-21T05:44:01;5.10;;;2.60;;
42754;SDS011;28407;51.830;5.684;2022-08-21T05:46:02;3.88;;;2.42;;
42754;SDS011;28407;51.830;5.684;2022-08-21T05:48:07;5.35;;;2.78;;
42754;SDS011;28407;51.830;5.684;2022-08-21T05:50:09;4.38;;;2.90;;
42754;SDS011;28407;51.830;5.684;2022-08-21T05:52:10;3.85;;;3.17;;
42754;SDS011;28407;51.830;5.684;2022-08-21T05:54:10;4.95;;;2.90;;
42754;SDS011;28407;51.830;5.684;2022-08-21T05:56:11;4.70;;;2.80;;
42754;SDS011;28407;51.830;5.684;2022-08-21T05:58:16;3.38;;;2.53;;
42754;SDS011;28407;51.830;5.684;2022-08-21T06:00:18;3.72;;;2.38;;
42754;SDS011;28407;51.830;5.684;2022-08-21T06:02:19;3.20;;;2.60;;
42754;SDS011;28407;51.830;5.684;2022-08-21T06:04:20;3.67;;;2.58;;
42754;SDS011;28407;51.830;5.684;2022-08-21T06:06:21;4.20;;;2.58;;
42754;SDS011;28407;51.830;5.684;2022-08-21T06:08:22;4.18;;;2.17;;
42754;SDS011;28407;51.830;5.684;2022-08-21T06:10:23;3.78;;;2.85;;
42754;SDS011;28407;51.830;5.684;2022-08-21T06:12:24;3.78;;;2.85;;
42754;SDS011;28407;51.830;5.684;2022-08-21T06:14:25;4.33;;;2.03;;
42754;SDS011;28407;51.830;5.684;2022-08-21T06:16:26;6.80;;;2.35;;
42754;SDS011;28407;51.830;5.684;2022-08-21T06:18:27;5.40;;;2.33;;
42754;SDS011;28407;51.830;5.684;2022-08-21T06:20:27;4.65;;;2.33;;
42754;SDS011;28407;51.830;5.684;2022-08-21T06:22:28;3.22;;;1.95;;
42754;SDS011;28407;51.830;5.684;2022-08-21T06:24:29;3.63;;;2.20;;
42754;SDS011;28407;51.830;5.684;2022-08-21T06:26:30;3.20;;;2.10;;
42754;SDS011;28407;51.830;5.684;2022-08-21T06:28:31;3.83;;;2.13;;
42754;SDS011;28407;51.830;5.684;2022-08-21T06:30:33;4.22;;;2.30;;
42754;SDS011;28407;51.830;5.684;2022-08-21T06:32:35;5.72;;;2.10;;
42754;SDS011;28407;51.830;5.684;2022-08-21T06:34:37;3.63;;;2.10;;
42754;SDS011;28407;51.830;5.684;2022-08-21T06:36:41;3.15;;;1.85;;
42754;SDS011;28407;51.830;5.684;2022-08-21T06:38:41;3.33;;;2.20;;
42754;SDS011;28407;51.830;5.684;2022-08-21T06:40:42;3.65;;;1.95;;
42754;SDS011;28407;51.830;5.684;2022-08-21T06:42:43;3.03;;;2.13;;
42754;SDS011;28407;51.830;5.684;2022-08-21T06:44:44;2.90;;;2.05;;
42754;SDS011;28407;51.830;5.684;2022-08-21T06:46:44;5.43;;;3.03;;
42754;SDS011;28407;51.830;5.684;2022-08-21T06:48:45;5.22;;;2.72;;
42754;SDS011;28407;51.830;5.684;2022-08-21T06:50:46;4.50;;;2.33;;
42754;SDS011;28407;51.830;5.684;2022-08-21T06:52:47;4.05;;;2.38;;
42754;SDS011;28407;51.830;5.684;2022-08-21T06:54:47;3.83;;;2.30;;
42754;SDS011;28407;51.830;5.684;2022-08-21T06:56:48;4.18;;;2.13;;
42754;SDS011;28407;51.830;5.684;2022-08-21T06:58:49;5.25;;;3.20;;
42754;SDS011;28407;51.830;5.684;2022-08-21T07:00:49;3.70;;;2.88;;
42754;SDS011;28407;51.830;5.684;2022-08-21T07:02:54;3.70;;;2.20;;
42754;SDS011;28407;51.830;5.684;2022-08-21T07:04:55;4.35;;;1.95;;
42754;SDS011;28407;51.830;5.684;2022-08-21T07:06:55;3.78;;;1.90;;
42754;SDS011;28407;51.830;5.684;2022-08-21T07:08:56;5.95;;;2.10;;
42754;SDS011;28407;51.830;5.684;2022-08-21T07:10:57;3.25;;;1.75;;
42754;SDS011;28407;51.830;5.684;2022-08-21T07:12:59;3.95;;;1.80;;
42754;SDS011;28407;51.830;5.684;2022-08-21T07:15:00;4.82;;;1.63;;
42754;SDS011;28407;51.830;5.684;2022-08-21T07:17:01;3.35;;;1.92;;
42754;SDS011;28407;51.830;5.684;2022-08-21T07:19:02;4.57;;;1.73;;
42754;SDS011;28407;51.830;5.684;2022-08-21T07:21:03;4.10;;;1.70;;
42754;SDS011;28407;51.830;5.684;2022-08-21T07:23:07;3.25;;;1.70;;
42754;SDS011;28407;51.830;5.684;2022-08-21T07:25:16;4.68;;;2.00;;
42754;SDS011;28407;51.830;5.684;2022-08-21T07:27:16;2.97;;;1.70;;
42754;SDS011;28407;51.830;5.684;2022-08-21T07:29:17;1.90;;;1.55;;
42754;SDS011;28407;51.830;5.684;2022-08-21T07:31:19;4.63;;;1.50;;
42754;SDS011;28407;51.830;5.684;2022-08-21T07:33:21;3.65;;;2.00;;
42754;SDS011;28407;51.830;5.684;2022-08-21T07:35:23;5.10;;;2.40;;
42754;SDS011;28407;51.830;5.684;2022-08-21T07:37:23;2.95;;;1.70;;
42754;SDS011;28407;51.830;5.684;2022-08-21T07:39:25;2.97;;;1.77;;
42754;SDS011;28407;51.830;5.684;2022-08-21T07:41:26;5.15;;;2.08;;
42754;SDS011;28407;51.830;5.684;2022-08-21T07:43:29;3.90;;;1.70;;
42754;SDS011;28407;51.830;5.684;2022-08-21T07:45:29;4.43;;;1.48;;
42754;SDS011;28407;51.830;5.684;2022-08-21T07:47:30;5.30;;;1.80;;
42754;SDS011;28407;51.830;5.684;2022-08-21T07:49:31;3.63;;;1.75;;
42754;SDS011;28407;51.830;5.684;2022-08-21T07:51:32;3.95;;;1.30;;
42754;SDS011;28407;51.830;5.684;2022-08-21T07:53:34;2.10;;;1.20;;
42754;SDS011;28407;51.830;5.684;2022-08-21T07:55:35;3.95;;;1.77;;
42754;SDS011;28407;51.830;5.684;2022-08-21T07:57:36;5.50;;;1.77;;
42754;SDS011;28407;51.830;5.684;2022-08-21T07:59:37;6.60;;;3.05;;
42754;SDS011;28407;51.830;5.684;2022-08-21T08:01:37;5.43;;;1.63;;
42754;SDS011;28407;51.830;5.684;2022-08-21T08:03:38;3.50;;;1.55;;
42754;SDS011;28407;51.830;5.684;2022-08-21T08:05:39;4.78;;;1.70;;
42754;SDS011;28407;51.830;5.684;2022-08-21T08:07:40;2.60;;;1.10;;
42754;SDS011;28407;51.830;5.684;2022-08-21T08:09:41;2.80;;;1.37;;
42754;SDS011;28407;51.830;5.684;2022-08-21T08:11:42;4.22;;;2.08;;
42754;SDS011;28407;51.830;5.684;2022-08-21T08:13:46;3.47;;;1.60;;
42754;SDS011;28407;51.830;5.684;2022-08-21T08:15:48;4.30;;;1.42;;
42754;SDS011;28407;51.830;5.684;2022-08-21T08:17:49;4.65;;;1.48;;
42754;SDS011;28407;51.830;5.684;2022-08-21T08:19:50;7.47;;;2.88;;
42754;SDS011;28407;51.830;5.684;2022-08-21T08:21:50;2.63;;;1.23;;
42754;SDS011;28407;51.830;5.684;2022-08-21T08:23:51;2.95;;;1.30;;
42754;SDS011;28407;51.830;5.684;2022-08-21T08:25:52;3.38;;;1.30;;
42754;SDS011;28407;51.830;5.684;2022-08-21T08:27:52;3.97;;;1.48;;
42754;SDS011;28407;51.830;5.684;2022-08-21T08:29:53;5.38;;;1.65;;
42754;SDS011;28407;51.830;5.684;2022-08-21T08:31:54;3.15;;;1.20;;
42754;SDS011;28407;51.830;5.684;2022-08-21T08:33:54;3.03;;;1.33;;
42754;SDS011;28407;51.830;5.684;2022-08-21T08:35:55;3.50;;;1.42;;
42754;SDS011;28407;51.830;5.684;2022-08-21T08:37:56;3.60;;;1.48;;
42754;SDS011;28407;51.830;5.684;2022-08-21T08:39:56;3.63;;;1.38;;
42754;SDS011;28407;51.830;5.684;2022-08-21T08:44:13;3.60;;;1.20;;
42754;SDS011;28407;51.830;5.684;2022-08-21T08:46:15;3.75;;;1.50;;
42754;SDS011;28407;51.830;5.684;2022-08-21T08:48:26;3.28;;;1.30;;
42754;SDS011;28407;51.830;5.684;2022-08-21T08:50:44;2.33;;;1.02;;
42754;SDS011;28407;51.830;5.684;2022-08-21T08:52:53;3.13;;;1.33;;
42754;SDS011;28407;51.830;5.684;2022-08-21T08:55:06;3.20;;;1.10;;
42754;SDS011;28407;51.830;5.684;2022-08-21T08:57:18;2.03;;;0.90;;
42754;SDS011;28407;51.830;5.684;2022-08-21T08:59:23;2.90;;;0.90;;
42754;SDS011;28407;51.830;5.684;2022-08-21T09:01:27;3.10;;;1.00;;
42754;SDS011;28407;51.830;5.684;2022-08-21T09:03:28;2.80;;;1.00;;
42754;SDS011;28407;51.830;5.684;2022-08-21T09:05:35;5.20;;;1.17;;
42754;SDS011;28407;51.830;5.684;2022-08-21T09:07:53;2.25;;;1.45;;
42754;SDS011;28407;51.830;5.684;2022-08-21T09:10:19;2.80;;;0.90;;
42754;SDS011;28407;51.830;5.684;2022-08-21T09:12:58;3.08;;;0.98;;
42754;SDS011;28407;51.830;5.684;2022-08-21T09:17:17;3.85;;;1.40;;
42754;SDS011;28407;51.830;5.684;2022-08-21T09:28:03;3.38;;;1.23;;
42754;SDS011;28407;51.830;5.684;2022-08-21T09:30:08;1.83;;;1.17;;
42754;SDS011;28407;51.830;5.684;2022-08-21T09:32:14;3.50;;;0.90;;
42754;SDS011;28407;51.830;5.684;2022-08-21T09:34:25;4.55;;;1.40;;
42754;SDS011;28407;51.830;5.684;2022-08-21T09:36:40;2.50;;;0.80;;
42754;SDS011;28407;51.830;5.684;2022-08-21T09:38:51;2.50;;;0.88;;
42754;SDS011;28407;51.830;5.684;2022-08-21T09:40:59;4.03;;;0.85;;
42754;SDS011;28407;51.830;5.684;2022-08-21T09:45:14;1.60;;;0.75;;
42754;SDS011;28407;51.830;5.684;2022-08-21T09:47:18;3.28;;;0.88;;
42754;SDS011;28407;51.830;5.684;2022-08-21T09:49:27;2.58;;;0.80;;
42754;SDS011;28407;51.830;5.684;2022-08-21T09:51:33;3.78;;;0.80;;
42754;SDS011;28407;51.830;5.684;2022-08-21T09:53:37;2.42;;;0.70;;
42754;SDS011;28407;51.830;5.684;2022-08-21T09:58:13;2.45;;;0.68;;
42754;SDS011;28407;51.830;5.684;2022-08-21T10:00:18;3.22;;;0.68;;
42754;SDS011;28407;51.830;5.684;2022-08-21T10:02:24;2.58;;;0.68;;
42754;SDS011;28407;51.830;5.684;2022-08-21T10:04:32;2.50;;;0.70;;
42754;SDS011;28407;51.830;5.684;2022-08-21T10:06:36;2.05;;;0.60;;
42754;SDS011;28407;51.830;5.684;2022-08-21T10:08:37;1.97;;;0.70;;
42754;SDS011;28407;51.830;5.684;2022-08-21T10:10:39;3.17;;;0.80;;
42754;SDS011;28407;51.830;5.684;2022-08-21T10:17:33;3.13;;;0.50;;
42754;SDS011;28407;51.830;5.684;2022-08-21T10:19:48;0.73;;;0.50;;
42754;SDS011;28407;51.830;5.684;2022-08-21T10:24:08;2.25;;;0.60;;
42754;SDS011;28407;51.830;5.684;2022-08-21T10:28:27;2.35;;;0.50;;
42754;SDS011;28407;51.830;5.684;2022-08-21T10:30:38;2.20;;;0.40;;
42754;SDS011;28407;51.830;5.684;2022-08-21T10:35:27;1.55;;;0.50;;
42754;SDS011;28407;51.830;5.684;2022-08-21T10:53:49;1.30;;;0.43;;
42754;SDS011;28407;51.830;5.684;2022-08-21T10:56:12;1.35;;;0.55;;
42754;SDS011;28407;51.830;5.684;2022-08-21T10:58:29;1.48;;;0.50;;
42754;SDS011;28407;51.830;5.684;2022-08-21T11:05:19;2.22;;;0.60;;
42754;SDS011;28407;51.830;5.684;2022-08-21T11:07:29;1.85;;;0.63;;
42754;SDS011;28407;51.830;5.684;2022-08-21T11:09:35;2.13;;;0.50;;
42754;SDS011;28407;51.830;5.684;2022-08-21T11:11:42;2.90;;;0.60;;
42754;SDS011;28407;51.830;5.684;2022-08-21T11:13:58;3.88;;;0.60;;
42754;SDS011;28407;51.830;5.684;2022-08-21T11:16:16;1.13;;;0.40;;
42754;SDS011;28407;51.830;5.684;2022-08-21T11:18:32;1.63;;;0.50;;
42754;SDS011;28407;51.830;5.684;2022-08-21T11:20:40;1.40;;;0.45;;
42754;SDS011;28407;51.830;5.684;2022-08-21T11:25:40;1.25;;;0.40;;
42754;SDS011;28407;51.830;5.684;2022-08-21T11:27:18;1.10;;;0.40;;
42754;SDS011;28407;51.830;5.684;2022-08-21T11:29:25;0.85;;;0.47;;
42754;SDS011;28407;51.830;5.684;2022-08-21T11:31:34;0.50;;;0.28;;
42754;SDS011;28407;51.830;5.684;2022-08-21T11:38:46;2.08;;;0.43;;
42754;SDS011;28407;51.830;5.684;2022-08-21T11:42:59;1.05;;;0.32;;
42754;SDS011;28407;51.830;5.684;2022-08-21T11:45:10;0.63;;;0.40;;
42754;SDS011;28407;51.830;5.684;2022-08-21T11:47:33;1.45;;;0.47;;
42754;SDS011;28407;51.830;5.684;2022-08-21T11:49:56;1.65;;;0.30;;
42754;SDS011;28407;51.830;5.684;2022-08-21T11:52:19;1.02;;;0.30;;
42754;SDS011;28407;51.830;5.684;2022-08-21T11:56:42;2.20;;;0.45;;
42754;SDS011;28407;51.830;5.684;2022-08-21T11:58:54;1.63;;;0.40;;
42754;SDS011;28407;51.830;5.684;2022-08-21T12:01:01;1.90;;;0.40;;
42754;SDS011;28407;51.830;5.684;2022-08-21T12:03:08;1.65;;;0.50;;
42754;SDS011;28407;51.830;5.684;2022-08-21T12:05:30;2.20;;;0.30;;
42754;SDS011;28407;51.830;5.684;2022-08-21T12:07:35;0.57;;;0.20;;
42754;SDS011;28407;51.830;5.684;2022-08-21T12:09:39;0.88;;;0.30;;
42754;SDS011;28407;51.830;5.684;2022-08-21T12:12:21;1.67;;;0.20;;
42754;SDS011;28407;51.830;5.684;2022-08-21T12:14:22;3.88;;;0.40;;
42754;SDS011;28407;51.830;5.684;2022-08-21T12:18:34;0.93;;;0.30;;
42754;SDS011;28407;51.830;5.684;2022-08-21T12:20:39;1.08;;;0.20;;
42754;SDS011;28407;51.830;5.684;2022-08-21T12:25:14;1.55;;;0.30;;
42754;SDS011;28407;51.830;5.684;2022-08-21T12:27:28;0.38;;;0.20;;
42754;SDS011;28407;51.830;5.684;2022-08-21T12:29:45;2.05;;;0.40;;
42754;SDS011;28407;51.830;5.684;2022-08-21T12:32:02;2.88;;;0.63;;
42754;SDS011;28407;51.830;5.684;2022-08-21T12:34:19;1.55;;;0.30;;
42754;SDS011;28407;51.830;5.684;2022-08-21T12:36:24;1.85;;;0.50;;
42754;SDS011;28407;51.830;5.684;2022-08-21T12:38:39;2.45;;;0.95;;
42754;SDS011;28407;51.830;5.684;2022-08-21T12:40:53;2.17;;;0.30;;
42754;SDS011;28407;51.830;5.684;2022-08-21T12:43:05;1.23;;;0.30;;
42754;SDS011;28407;51.830;5.684;2022-08-21T12:47:49;1.05;;;0.30;;
42754;SDS011;28407;51.830;5.684;2022-08-21T12:50:57;2.00;;;0.35;;
42754;SDS011;28407;51.830;5.684;2022-08-21T12:52:44;0.40;;;0.30;;
42754;SDS011;28407;51.830;5.684;2022-08-21T12:54:51;2.25;;;0.40;;
42754;SDS011;28407;51.830;5.684;2022-08-21T12:57:02;0.85;;;0.30;;
42754;SDS011;28407;51.830;5.684;2022-08-21T12:59:05;0.50;;;0.30;;
42754;SDS011;28407;51.830;5.684;2022-08-21T13:01:13;1.50;;;0.32;;
42754;SDS011;28407;51.830;5.684;2022-08-21T13:03:24;3.03;;;0.40;;
42754;SDS011;28407;51.830;5.684;2022-08-21T13:05:30;1.10;;;0.30;;
42754;SDS011;28407;51.830;5.684;2022-08-21T13:07:35;0.80;;;0.28;;
42754;SDS011;28407;51.830;5.684;2022-08-21T13:09:38;0.73;;;0.45;;
42754;SDS011;28407;51.830;5.684;2022-08-21T13:12:07;1.08;;;0.40;;
42754;SDS011;28407;51.830;5.684;2022-08-21T13:16:42;0.90;;;0.28;;
42754;SDS011;28407;51.830;5.684;2022-08-21T13:18:59;0.98;;;0.40;;
42754;SDS011;28407;51.830;5.684;2022-08-21T13:21:06;1.65;;;0.30;;
42754;SDS011;28407;51.830;5.684;2022-08-21T13:23:26;1.60;;;0.30;;
42754;SDS011;28407;51.830;5.684;2022-08-21T13:25:29;0.75;;;0.20;;
42754;SDS011;28407;51.830;5.684;2022-08-21T13:27:34;1.25;;;0.20;;
42754;SDS011;28407;51.830;5.684;2022-08-21T13:29:34;0.93;;;0.30;;
42754;SDS011;28407;51.830;5.684;2022-08-21T13:31:35;2.23;;;0.30;;
42754;SDS011;28407;51.830;5.684;2022-08-21T13:33:36;1.98;;;0.20;;
42754;SDS011;28407;51.830;5.684;2022-08-21T13:38:19;1.80;;;0.30;;
42754;SDS011;28407;51.830;5.684;2022-08-21T13:40:26;1.98;;;0.40;;
42754;SDS011;28407;51.830;5.684;2022-08-21T13:42:43;1.30;;;0.35;;
42754;SDS011;28407;51.830;5.684;2022-08-21T13:44:46;1.77;;;0.30;;
42754;SDS011;28407;51.830;5.684;2022-08-21T13:46:48;1.98;;;0.20;;
42754;SDS011;28407;51.830;5.684;2022-08-21T13:50:50;1.65;;;0.30;;
42754;SDS011;28407;51.830;5.684;2022-08-21T13:52:56;0.82;;;0.15;;
42754;SDS011;28407;51.830;5.684;2022-08-21T13:55:00;0.77;;;0.30;;
42754;SDS011;28407;51.830;5.684;2022-08-21T13:57:18;0.68;;;0.25;;